CPA660 VABB-VHHH
Flight info
| Callsign | CPA660 |
|---|---|
| Flight time | 4h 43m |
| Altitude | 35000 |
| Route | ANOLI2A AAU G450 NNP Z14 OGUNA W160 JRS J46 NUDLA/N0494F370 J46 CEA B465 CTG A599 LINSO/K0911S1130 A599 GULOT W146 XSJ W148 LXI A599 POU R473 SIERA |
| Aircraft | B77W/H-SDE1E2E3FGHIJ2J3J4J5M1RWXY/LB1D1 |
Departure
| Time | 2026-05-05 11:28 |
|---|---|
| Airport | Chhatrapati Shivaji Maharaj International Airport (VABB) |
Arrival
| Time | 2026-05-05 16:11 |
|---|---|
| Airport | Hong Kong International Airport (VHHH) |
| Time | Latitude | Longitude | Altitude | Speed | Heading |
|---|---|---|---|---|---|
| 2026-05-05 11:05 | 19.09478 | 72.87067 | 54 ft | 0 kts | 140° |
| 2026-05-05 11:18 | 19.09493 | 72.87054 | 48 ft | 4 kts | 140° |
| 2026-05-05 11:18 | 19.09513 | 72.87036 | 48 ft | 2 kts | 139° |
| 2026-05-05 11:18 | 19.09532 | 72.87024 | 48 ft | 4 kts | 186° |
| 2026-05-05 11:18 | 19.09553 | 72.87036 | 47 ft | 4 kts | 229° |
| 2026-05-05 11:19 | 19.09563 | 72.87048 | 48 ft | 0 kts | 227° |
| 2026-05-05 11:21 | 19.09531 | 72.87011 | 47 ft | 14 kts | 227° |
| 2026-05-05 11:21 | 19.09449 | 72.86915 | 47 ft | 15 kts | 229° |
| 2026-05-05 11:21 | 19.09368 | 72.86884 | 51 ft | 11 kts | 155° |
| 2026-05-05 11:21 | 19.09312 | 72.86935 | 50 ft | 10 kts | 135° |
| 2026-05-05 11:22 | 19.09262 | 72.86987 | 47 ft | 10 kts | 135° |
| 2026-05-05 11:22 | 19.09234 | 72.87054 | 50 ft | 10 kts | 95° |
| 2026-05-05 11:22 | 19.09235 | 72.87128 | 54 ft | 10 kts | 89° |
| 2026-05-05 11:22 | 19.09236 | 72.87200 | 54 ft | 9 kts | 89° |
| 2026-05-05 11:23 | 19.09206 | 72.87255 | 50 ft | 9 kts | 152° |
| 2026-05-05 11:23 | 19.09143 | 72.87263 | 51 ft | 9 kts | 179° |
| 2026-05-05 11:23 | 19.09079 | 72.87270 | 52 ft | 9 kts | 157° |
| 2026-05-05 11:23 | 19.09053 | 72.87330 | 49 ft | 9 kts | 95° |
| 2026-05-05 11:24 | 19.09051 | 72.87398 | 50 ft | 9 kts | 90° |
| 2026-05-05 11:24 | 19.09052 | 72.87472 | 49 ft | 11 kts | 89° |
| 2026-05-05 11:24 | 19.09053 | 72.87563 | 49 ft | 13 kts | 89° |
| 2026-05-05 11:24 | 19.09055 | 72.87656 | 48 ft | 13 kts | 89° |
| 2026-05-05 11:25 | 19.09057 | 72.87749 | 48 ft | 13 kts | 89° |
| 2026-05-05 11:25 | 19.09058 | 72.87842 | 48 ft | 13 kts | 89° |
| 2026-05-05 11:25 | 19.09059 | 72.87935 | 53 ft | 13 kts | 89° |
| 2026-05-05 11:25 | 19.09050 | 72.88026 | 51 ft | 13 kts | 120° |
| 2026-05-05 11:26 | 19.09015 | 72.88047 | 53 ft | 1 kts | 170° |
| 2026-05-05 11:26 | 19.09006 | 72.88048 | 51 ft | 2 kts | 170° |
| 2026-05-05 11:26 | 19.08961 | 72.88052 | 51 ft | 10 kts | 178° |
| 2026-05-05 11:26 | 19.08898 | 72.88021 | 45 ft | 11 kts | 237° |
| 2026-05-05 11:27 | 19.08886 | 72.87945 | 49 ft | 3 kts | 269° |
| 2026-05-05 11:27 | 19.08886 | 72.87903 | 52 ft | 26 kts | 269° |
| 2026-05-05 11:27 | 19.08880 | 72.87430 | 54 ft | 101 kts | 269° |
| 2026-05-05 11:28 | 19.08866 | 72.86457 | 49 ft | 161 kts | 269° |
| 2026-05-05 11:28 | 19.08849 | 72.85142 | 311 ft | 183 kts | 269° |
| 2026-05-05 11:28 | 19.08831 | 72.83806 | 1022 ft | 182 kts | 269° |
| 2026-05-05 11:28 | 19.08806 | 72.82491 | 1822 ft | 177 kts | 271° |
| 2026-05-05 11:29 | 19.08816 | 72.81166 | 2320 ft | 188 kts | 270° |
| 2026-05-05 11:29 | 19.08793 | 72.79678 | 2519 ft | 216 kts | 269° |
| 2026-05-05 11:29 | 19.08762 | 72.78008 | 2870 ft | 235 kts | 268° |
| 2026-05-05 11:29 | 19.08727 | 72.76228 | 3419 ft | 247 kts | 269° |
| 2026-05-05 11:30 | 19.08735 | 72.74396 | 4014 ft | 254 kts | 278° |
| 2026-05-05 11:30 | 19.09437 | 72.72669 | 4635 ft | 263 kts | 309° |
| 2026-05-05 11:30 | 19.10906 | 72.71495 | 5313 ft | 271 kts | 336° |
| 2026-05-05 11:30 | 19.12788 | 72.71180 | 5967 ft | 282 kts | 5° |
| 2026-05-05 11:31 | 19.14636 | 72.71903 | 6595 ft | 291 kts | 37° |
| 2026-05-05 11:31 | 19.16194 | 72.73271 | 7128 ft | 296 kts | 34° |
| 2026-05-05 11:31 | 19.18000 | 72.74318 | 7836 ft | 295 kts | 19° |
| 2026-05-05 11:31 | 19.19985 | 72.74773 | 8651 ft | 294 kts | 2° |
| 2026-05-05 11:32 | 19.22041 | 72.74659 | 9259 ft | 299 kts | 352° |
| 2026-05-05 11:32 | 19.24111 | 72.74402 | 9774 ft | 300 kts | 353° |
| 2026-05-05 11:32 | 19.26210 | 72.74200 | 9825 ft | 307 kts | 355° |
| 2026-05-05 11:32 | 19.28347 | 72.74055 | 9829 ft | 305 kts | 359° |
| 2026-05-05 11:33 | 19.30399 | 72.74468 | 9851 ft | 303 kts | 25° |
| 2026-05-05 11:33 | 19.32151 | 72.75741 | 10093 ft | 314 kts | 41° |
| 2026-05-05 11:33 | 19.33825 | 72.77307 | 10226 ft | 338 kts | 42° |
| 2026-05-05 11:33 | 19.35638 | 72.79027 | 10384 ft | 362 kts | 42° |
| 2026-05-05 11:34 | 19.37569 | 72.80858 | 10656 ft | 380 kts | 41° |
| 2026-05-05 11:34 | 19.39554 | 72.82726 | 11406 ft | 383 kts | 41° |
| 2026-05-05 11:34 | 19.41564 | 72.84608 | 12215 ft | 387 kts | 41° |
| 2026-05-05 11:34 | 19.43587 | 72.86496 | 13141 ft | 389 kts | 41° |
| 2026-05-05 11:35 | 19.45527 | 72.88510 | 13742 ft | 394 kts | 53° |
| 2026-05-05 11:35 | 19.46768 | 72.91097 | 14481 ft | 397 kts | 74° |
| 2026-05-05 11:35 | 19.47372 | 72.93954 | 15167 ft | 399 kts | 78° |
| 2026-05-05 11:35 | 19.47915 | 72.96846 | 15952 ft | 401 kts | 78° |
| 2026-05-05 11:36 | 19.48473 | 72.99766 | 16700 ft | 407 kts | 77° |
| 2026-05-05 11:36 | 19.49061 | 73.02710 | 17564 ft | 407 kts | 76° |
| 2026-05-05 11:36 | 19.49668 | 73.05683 | 18088 ft | 420 kts | 76° |
| 2026-05-05 11:36 | 19.50299 | 73.08731 | 18628 ft | 426 kts | 76° |
| 2026-05-05 11:37 | 19.50953 | 73.11819 | 19162 ft | 433 kts | 75° |
| 2026-05-05 11:37 | 19.51620 | 73.14950 | 19729 ft | 438 kts | 75° |
| 2026-05-05 11:37 | 19.52066 | 73.17046 | 20085 ft | 442 kts | 75° |
| 2026-05-05 11:37 | 19.52746 | 73.20247 | 20616 ft | 448 kts | 75° |
| 2026-05-05 11:38 | 19.53430 | 73.23481 | 21121 ft | 453 kts | 75° |
| 2026-05-05 11:38 | 19.54123 | 73.26767 | 21637 ft | 459 kts | 75° |
| 2026-05-05 11:38 | 19.54821 | 73.30081 | 22160 ft | 463 kts | 75° |
| 2026-05-05 11:38 | 19.55525 | 73.33429 | 22671 ft | 467 kts | 75° |
| 2026-05-05 11:39 | 19.56223 | 73.36804 | 23189 ft | 472 kts | 76° |
| 2026-05-05 11:39 | 19.56716 | 73.40266 | 23608 ft | 478 kts | 81° |
| 2026-05-05 11:39 | 19.57034 | 73.43791 | 23997 ft | 482 kts | 83° |
| 2026-05-05 11:39 | 19.57305 | 73.47348 | 24385 ft | 486 kts | 83° |
| 2026-05-05 11:40 | 19.57592 | 73.50927 | 24781 ft | 489 kts | 82° |
| 2026-05-05 11:40 | 19.57914 | 73.54528 | 25172 ft | 492 kts | 82° |
| 2026-05-05 11:40 | 19.58264 | 73.58150 | 25553 ft | 495 kts | 82° |
| 2026-05-05 11:40 | 19.58627 | 73.61792 | 25937 ft | 498 kts | 82° |
| 2026-05-05 11:41 | 19.58985 | 73.65407 | 26283 ft | 502 kts | 82° |
| 2026-05-05 11:41 | 19.59583 | 73.69100 | 26578 ft | 502 kts | 71° |
| 2026-05-05 11:41 | 19.60996 | 73.72460 | 26849 ft | 500 kts | 58° |
| 2026-05-05 11:41 | 19.62722 | 73.75669 | 27135 ft | 503 kts | 58° |
| 2026-05-05 11:42 | 19.64464 | 73.78881 | 27472 ft | 507 kts | 58° |
| 2026-05-05 11:42 | 19.66183 | 73.82125 | 27822 ft | 509 kts | 59° |
| 2026-05-05 11:42 | 19.67888 | 73.85433 | 28137 ft | 512 kts | 59° |
| 2026-05-05 11:42 | 19.69576 | 73.88774 | 28432 ft | 515 kts | 60° |
| 2026-05-05 11:43 | 19.71264 | 73.92144 | 28705 ft | 519 kts | 60° |
| 2026-05-05 11:43 | 19.72960 | 73.95534 | 28962 ft | 521 kts | 60° |
| 2026-05-05 11:43 | 19.74673 | 73.98944 | 29240 ft | 524 kts | 60° |
| 2026-05-05 11:43 | 19.76372 | 74.02369 | 29499 ft | 527 kts | 62° |
| 2026-05-05 11:44 | 19.77868 | 74.05942 | 29712 ft | 531 kts | 66° |
| 2026-05-05 11:44 | 19.79177 | 74.09607 | 29975 ft | 532 kts | 69° |
| 2026-05-05 11:44 | 19.80413 | 74.13314 | 30281 ft | 532 kts | 69° |
| 2026-05-05 11:44 | 19.81638 | 74.17009 | 30608 ft | 530 kts | 69° |
| 2026-05-05 11:45 | 19.82890 | 74.20693 | 30966 ft | 529 kts | 68° |
| 2026-05-05 11:45 | 19.84168 | 74.24357 | 31297 ft | 528 kts | 68° |
| 2026-05-05 11:45 | 19.85466 | 74.28005 | 31627 ft | 527 kts | 67° |
| 2026-05-05 11:45 | 19.86775 | 74.31651 | 31949 ft | 527 kts | 67° |
| 2026-05-05 11:46 | 19.88082 | 74.35281 | 32283 ft | 526 kts | 67° |
| 2026-05-05 11:46 | 19.89385 | 74.38906 | 32628 ft | 525 kts | 67° |
| 2026-05-05 11:46 | 19.90685 | 74.42535 | 32972 ft | 524 kts | 67° |
| 2026-05-05 11:46 | 19.91977 | 74.46154 | 33310 ft | 524 kts | 67° |
| 2026-05-05 11:47 | 19.93265 | 74.49768 | 33640 ft | 523 kts | 67° |
| 2026-05-05 11:47 | 19.94532 | 74.53325 | 33961 ft | 522 kts | 67° |
| 2026-05-05 11:47 | 19.95813 | 74.56922 | 34255 ft | 521 kts | 67° |
| 2026-05-05 11:47 | 19.97098 | 74.60534 | 34557 ft | 520 kts | 67° |
| 2026-05-05 11:48 | 19.99574 | 74.67767 | 34827 ft | 523 kts | 75° |
| 2026-05-05 11:48 | 20.00060 | 74.71597 | 34851 ft | 526 kts | 90° |
| 2026-05-05 11:48 | 19.99560 | 74.75438 | 34873 ft | 523 kts | 103° |
| 2026-05-05 11:49 | 19.97854 | 74.82974 | 34867 ft | 526 kts | 103° |
| 2026-05-05 11:49 | 19.96240 | 74.90569 | 34862 ft | 528 kts | 102° |
| 2026-05-05 11:50 | 19.94700 | 74.98197 | 34864 ft | 528 kts | 102° |
| 2026-05-05 11:50 | 19.93172 | 75.05821 | 34856 ft | 527 kts | 102° |
| 2026-05-05 11:51 | 19.91634 | 75.13428 | 34851 ft | 526 kts | 102° |
| 2026-05-05 11:51 | 19.90092 | 75.21018 | 34839 ft | 525 kts | 102° |
| 2026-05-05 11:52 | 19.88552 | 75.28585 | 34829 ft | 524 kts | 102° |
| 2026-05-05 11:52 | 19.87012 | 75.36139 | 34827 ft | 523 kts | 102° |
| 2026-05-05 11:53 | 19.86580 | 75.39947 | 34821 ft | 519 kts | 88° |
| 2026-05-05 11:53 | 19.87019 | 75.43687 | 34823 ft | 516 kts | 72° |
| 2026-05-05 11:53 | 19.89651 | 75.50739 | 34840 ft | 518 kts | 65° |
| 2026-05-05 11:54 | 19.92361 | 75.57895 | 34847 ft | 526 kts | 66° |
| 2026-05-05 11:54 | 19.95020 | 75.65184 | 34843 ft | 532 kts | 67° |
| 2026-05-05 11:55 | 19.97673 | 75.72566 | 34862 ft | 537 kts | 67° |
| 2026-05-05 11:55 | 20.00347 | 75.80015 | 34848 ft | 540 kts | 67° |
| 2026-05-05 11:56 | 20.03031 | 75.87482 | 34847 ft | 542 kts | 67° |
| 2026-05-05 11:56 | 20.05724 | 75.94979 | 34847 ft | 542 kts | 67° |
| 2026-05-05 11:57 | 20.08410 | 76.02468 | 34843 ft | 542 kts | 67° |
| 2026-05-05 11:57 | 20.11095 | 76.09965 | 34839 ft | 541 kts | 67° |
| 2026-05-05 11:58 | 20.13767 | 76.17440 | 34841 ft | 539 kts | 67° |
| 2026-05-05 11:58 | 20.16410 | 76.24844 | 34836 ft | 539 kts | 67° |
| 2026-05-05 11:59 | 20.19067 | 76.32297 | 34839 ft | 538 kts | 67° |
| 2026-05-05 11:59 | 20.21718 | 76.39748 | 34834 ft | 538 kts | 67° |
| 2026-05-05 12:00 | 20.24366 | 76.47199 | 34832 ft | 538 kts | 67° |
| 2026-05-05 12:00 | 20.27011 | 76.54652 | 34834 ft | 539 kts | 67° |
| 2026-05-05 12:01 | 20.29660 | 76.62131 | 34829 ft | 539 kts | 68° |
| 2026-05-05 12:01 | 20.32309 | 76.69621 | 34822 ft | 540 kts | 68° |
| 2026-05-05 12:02 | 20.34956 | 76.77119 | 34816 ft | 540 kts | 68° |
| 2026-05-05 12:02 | 20.37579 | 76.84575 | 34816 ft | 541 kts | 68° |
| 2026-05-05 12:03 | 20.39945 | 76.92190 | 34814 ft | 542 kts | 71° |
| 2026-05-05 12:03 | 20.42180 | 76.99867 | 34810 ft | 542 kts | 71° |
| 2026-05-05 12:04 | 20.44451 | 77.07520 | 34798 ft | 542 kts | 70° |
| 2026-05-05 12:04 | 20.46758 | 77.15166 | 34799 ft | 541 kts | 70° |
| 2026-05-05 12:05 | 20.49063 | 77.22807 | 34793 ft | 541 kts | 70° |
| 2026-05-05 12:05 | 20.51362 | 77.30458 | 34788 ft | 541 kts | 70° |
| 2026-05-05 12:06 | 20.53653 | 77.38098 | 34788 ft | 541 kts | 70° |
| 2026-05-05 12:06 | 20.55991 | 77.45738 | 34779 ft | 541 kts | 69° |
| 2026-05-05 12:07 | 20.58488 | 77.53310 | 34776 ft | 540 kts | 69° |
| 2026-05-05 12:07 | 20.60994 | 77.60875 | 34777 ft | 541 kts | 69° |
| 2026-05-05 12:08 | 20.63451 | 77.68403 | 34770 ft | 541 kts | 69° |
| 2026-05-05 12:08 | 20.65913 | 77.75994 | 34766 ft | 541 kts | 69° |
| 2026-05-05 12:09 | 20.68377 | 77.83591 | 34762 ft | 541 kts | 69° |
| 2026-05-05 12:09 | 20.70861 | 77.91184 | 34761 ft | 542 kts | 69° |
| 2026-05-05 12:10 | 20.73376 | 77.98775 | 34762 ft | 542 kts | 69° |
| 2026-05-05 12:10 | 20.75887 | 78.06368 | 34762 ft | 542 kts | 69° |
| 2026-05-05 12:11 | 20.78392 | 78.13976 | 34760 ft | 543 kts | 69° |
| 2026-05-05 12:11 | 20.80892 | 78.21592 | 34755 ft | 543 kts | 69° |
| 2026-05-05 12:12 | 20.83393 | 78.29221 | 34758 ft | 544 kts | 69° |
| 2026-05-05 12:12 | 20.85874 | 78.36801 | 34763 ft | 544 kts | 69° |
| 2026-05-05 12:13 | 20.88370 | 78.44441 | 34758 ft | 544 kts | 69° |
| 2026-05-05 12:13 | 20.90864 | 78.52084 | 34760 ft | 545 kts | 69° |
| 2026-05-05 12:14 | 20.93356 | 78.59738 | 34754 ft | 545 kts | 69° |
| 2026-05-05 12:14 | 20.95847 | 78.67402 | 34758 ft | 545 kts | 69° |
| 2026-05-05 12:15 | 20.98337 | 78.75072 | 34763 ft | 546 kts | 69° |
| 2026-05-05 12:15 | 21.00826 | 78.82758 | 34759 ft | 546 kts | 69° |
| 2026-05-05 12:16 | 21.03311 | 78.90441 | 34772 ft | 546 kts | 69° |
| 2026-05-05 12:16 | 21.05792 | 78.98125 | 34774 ft | 546 kts | 69° |
| 2026-05-05 12:17 | 21.08159 | 79.05820 | 34776 ft | 548 kts | 73° |
| 2026-05-05 12:17 | 21.09603 | 79.13851 | 34782 ft | 549 kts | 79° |
| 2026-05-05 12:18 | 21.10764 | 79.21948 | 34770 ft | 550 kts | 80° |
| 2026-05-05 12:18 | 21.11951 | 79.30053 | 34759 ft | 550 kts | 79° |
| 2026-05-05 12:19 | 21.13176 | 79.38146 | 34749 ft | 551 kts | 79° |
| 2026-05-05 12:19 | 21.14414 | 79.46246 | 34746 ft | 551 kts | 79° |
| 2026-05-05 12:20 | 21.15646 | 79.54351 | 34752 ft | 551 kts | 79° |
| 2026-05-05 12:20 | 21.16872 | 79.62466 | 34755 ft | 552 kts | 79° |
| 2026-05-05 12:21 | 21.18088 | 79.70546 | 34752 ft | 552 kts | 79° |
| 2026-05-05 12:21 | 21.19307 | 79.78679 | 34754 ft | 553 kts | 79° |
| 2026-05-05 12:22 | 21.20523 | 79.86819 | 34753 ft | 553 kts | 79° |
| 2026-05-05 12:22 | 21.21737 | 79.94965 | 34764 ft | 554 kts | 80° |
| 2026-05-05 12:23 | 21.22949 | 80.03127 | 34754 ft | 554 kts | 80° |
| 2026-05-05 12:23 | 21.23956 | 80.09928 | 34763 ft | 555 kts | 80° |
| 2026-05-05 12:24 | 21.25161 | 80.18096 | 34766 ft | 555 kts | 80° |
| 2026-05-05 12:24 | 21.26364 | 80.26276 | 34763 ft | 555 kts | 80° |
| 2026-05-05 12:25 | 21.27564 | 80.34467 | 34772 ft | 556 kts | 80° |
| 2026-05-05 12:25 | 21.28754 | 80.42620 | 34777 ft | 556 kts | 80° |
| 2026-05-05 12:26 | 21.29947 | 80.50820 | 34783 ft | 556 kts | 80° |
| 2026-05-05 12:26 | 21.31137 | 80.59024 | 34794 ft | 556 kts | 80° |
| 2026-05-05 12:27 | 21.32316 | 80.67185 | 34801 ft | 556 kts | 80° |
| 2026-05-05 12:27 | 21.33499 | 80.75402 | 34798 ft | 556 kts | 80° |
| 2026-05-05 12:28 | 21.34542 | 80.83638 | 34809 ft | 556 kts | 83° |
| 2026-05-05 12:28 | 21.35269 | 80.91902 | 34805 ft | 556 kts | 84° |
| 2026-05-05 12:29 | 21.35968 | 81.00118 | 34804 ft | 557 kts | 84° |
| 2026-05-05 12:29 | 21.36731 | 81.08441 | 34797 ft | 557 kts | 83° |
| 2026-05-05 12:30 | 21.37512 | 81.16685 | 34797 ft | 557 kts | 83° |
| 2026-05-05 12:30 | 21.38295 | 81.24980 | 34791 ft | 558 kts | 83° |
| 2026-05-05 12:31 | 21.39066 | 81.33263 | 34790 ft | 558 kts | 84° |
| 2026-05-05 12:31 | 21.39828 | 81.41508 | 34786 ft | 559 kts | 84° |
| 2026-05-05 12:32 | 21.40593 | 81.49832 | 34789 ft | 559 kts | 84° |
| 2026-05-05 12:32 | 21.41353 | 81.58141 | 34783 ft | 560 kts | 84° |
| 2026-05-05 12:33 | 21.42110 | 81.66468 | 34781 ft | 560 kts | 84° |
| 2026-05-05 12:33 | 21.42864 | 81.74794 | 34777 ft | 561 kts | 84° |
| 2026-05-05 12:34 | 21.43610 | 81.83088 | 34785 ft | 561 kts | 84° |
| 2026-05-05 12:34 | 21.44356 | 81.91437 | 34783 ft | 561 kts | 84° |
| 2026-05-05 12:35 | 21.45099 | 81.99775 | 34783 ft | 561 kts | 84° |
| 2026-05-05 12:35 | 21.45636 | 82.08142 | 34792 ft | 561 kts | 87° |
| 2026-05-05 12:36 | 21.45979 | 82.16469 | 34787 ft | 562 kts | 87° |
| 2026-05-05 12:36 | 21.46349 | 82.24848 | 34789 ft | 562 kts | 87° |
| 2026-05-05 12:37 | 21.46760 | 82.33222 | 34794 ft | 562 kts | 86° |
| 2026-05-05 12:37 | 21.47175 | 82.41604 | 34770 ft | 562 kts | 87° |
| 2026-05-05 12:38 | 21.47580 | 82.49986 | 34781 ft | 562 kts | 87° |
| 2026-05-05 12:38 | 21.47978 | 82.58337 | 34781 ft | 562 kts | 87° |
| 2026-05-05 12:39 | 21.48699 | 82.66683 | 34782 ft | 561 kts | 79° |
| 2026-05-05 12:39 | 21.50610 | 82.74782 | 34781 ft | 559 kts | 70° |
| 2026-05-05 12:40 | 21.53170 | 82.82686 | 34780 ft | 559 kts | 69° |
| 2026-05-05 12:40 | 21.55727 | 82.90569 | 34772 ft | 560 kts | 70° |
| 2026-05-05 12:41 | 21.58239 | 82.98500 | 34778 ft | 560 kts | 70° |
| 2026-05-05 12:41 | 21.60721 | 83.06435 | 34779 ft | 560 kts | 70° |
| 2026-05-05 12:42 | 21.63186 | 83.14333 | 34783 ft | 560 kts | 70° |
| 2026-05-05 12:42 | 21.65668 | 83.22280 | 34785 ft | 561 kts | 70° |
| 2026-05-05 12:43 | 21.68147 | 83.30230 | 34792 ft | 561 kts | 70° |
| 2026-05-05 12:43 | 21.70631 | 83.38208 | 34791 ft | 562 kts | 70° |
| 2026-05-05 12:44 | 21.73111 | 83.46190 | 34789 ft | 562 kts | 70° |
| 2026-05-05 12:44 | 21.75572 | 83.54128 | 34794 ft | 562 kts | 70° |
| 2026-05-05 12:45 | 21.78045 | 83.62122 | 34794 ft | 562 kts | 70° |
| 2026-05-05 12:45 | 21.80513 | 83.70112 | 34803 ft | 562 kts | 70° |
| 2026-05-05 12:46 | 21.82965 | 83.78063 | 34812 ft | 562 kts | 70° |
| 2026-05-05 12:46 | 21.85423 | 83.86052 | 34827 ft | 562 kts | 70° |
| 2026-05-05 12:47 | 21.87874 | 83.94035 | 34823 ft | 561 kts | 70° |
| 2026-05-05 12:47 | 21.90322 | 84.02021 | 34827 ft | 561 kts | 71° |
| 2026-05-05 12:48 | 21.92426 | 84.10110 | 34832 ft | 561 kts | 78° |
| 2026-05-05 12:48 | 21.93881 | 84.18368 | 34835 ft | 562 kts | 79° |
| 2026-05-05 12:49 | 21.95284 | 84.26645 | 34830 ft | 562 kts | 79° |
| 2026-05-05 12:49 | 21.96728 | 84.34917 | 34840 ft | 562 kts | 79° |
| 2026-05-05 12:50 | 21.98202 | 84.43205 | 34840 ft | 562 kts | 79° |
| 2026-05-05 12:50 | 21.99667 | 84.51432 | 34853 ft | 563 kts | 79° |
| 2026-05-05 12:51 | 22.01135 | 84.59728 | 34862 ft | 563 kts | 79° |
| 2026-05-05 12:51 | 22.02597 | 84.68029 | 34849 ft | 563 kts | 79° |
| 2026-05-05 12:52 | 22.04045 | 84.76279 | 34854 ft | 562 kts | 79° |
| 2026-05-05 12:52 | 22.05495 | 84.84565 | 34858 ft | 562 kts | 79° |
| 2026-05-05 12:53 | 22.06940 | 84.92847 | 34868 ft | 562 kts | 79° |
| 2026-05-05 12:53 | 22.08382 | 85.01136 | 34885 ft | 562 kts | 79° |
| 2026-05-05 12:54 | 22.10529 | 85.13531 | 34915 ft | 563 kts | 79° |
| 2026-05-05 12:55 | 22.11968 | 85.21866 | 34915 ft | 564 kts | 79° |
| 2026-05-05 12:55 | 22.13400 | 85.30186 | 34926 ft | 565 kts | 79° |
| 2026-05-05 12:56 | 22.14821 | 85.38476 | 34939 ft | 566 kts | 79° |
| 2026-05-05 12:56 | 22.16249 | 85.46834 | 34935 ft | 567 kts | 79° |
| 2026-05-05 12:57 | 22.17677 | 85.55211 | 34934 ft | 567 kts | 80° |
| 2026-05-05 12:57 | 22.19102 | 85.63594 | 34926 ft | 568 kts | 80° |
| 2026-05-05 12:58 | 22.20518 | 85.71958 | 34932 ft | 567 kts | 80° |
| 2026-05-05 12:58 | 22.21934 | 85.80348 | 34924 ft | 567 kts | 80° |
| 2026-05-05 12:59 | 22.23343 | 85.88727 | 34917 ft | 566 kts | 80° |
| 2026-05-05 12:59 | 22.24737 | 85.97035 | 34935 ft | 566 kts | 80° |
| 2026-05-05 13:00 | 22.26835 | 86.09600 | 34918 ft | 566 kts | 80° |
| 2026-05-05 13:01 | 22.29756 | 86.26331 | 34907 ft | 567 kts | 79° |
| 2026-05-05 13:01 | 22.31289 | 86.34700 | 34886 ft | 567 kts | 79° |
| 2026-05-05 13:02 | 22.32801 | 86.43048 | 34892 ft | 567 kts | 79° |
| 2026-05-05 13:02 | 22.34289 | 86.51362 | 34892 ft | 567 kts | 79° |
| 2026-05-05 13:03 | 22.35778 | 86.59723 | 34882 ft | 566 kts | 79° |
| 2026-05-05 13:03 | 22.37264 | 86.68091 | 35045 ft | 568 kts | 79° |
| 2026-05-05 13:04 | 22.38007 | 86.72280 | 35287 ft | 566 kts | 79° |
| 2026-05-05 13:04 | 22.38746 | 86.76456 | 35528 ft | 565 kts | 79° |
| 2026-05-05 13:04 | 22.39483 | 86.80624 | 35749 ft | 564 kts | 79° |
| 2026-05-05 13:04 | 22.40218 | 86.84782 | 35960 ft | 564 kts | 79° |
| 2026-05-05 13:05 | 22.40954 | 86.88961 | 36127 ft | 564 kts | 79° |
| 2026-05-05 13:05 | 22.41687 | 86.93123 | 36301 ft | 564 kts | 80° |
| 2026-05-05 13:05 | 22.42419 | 86.97287 | 36497 ft | 563 kts | 79° |
| 2026-05-05 13:05 | 22.43148 | 87.01443 | 36685 ft | 563 kts | 79° |
| 2026-05-05 13:06 | 22.43868 | 87.05556 | 36786 ft | 563 kts | 80° |
| 2026-05-05 13:06 | 22.44594 | 87.09706 | 36827 ft | 564 kts | 80° |
| 2026-05-05 13:06 | 22.46051 | 87.18056 | 36847 ft | 565 kts | 80° |
| 2026-05-05 13:07 | 22.47506 | 87.26420 | 36844 ft | 565 kts | 80° |
| 2026-05-05 13:07 | 22.48953 | 87.34768 | 36843 ft | 565 kts | 80° |
| 2026-05-05 13:08 | 22.50392 | 87.43090 | 36842 ft | 565 kts | 80° |
| 2026-05-05 13:08 | 22.51834 | 87.51461 | 36847 ft | 565 kts | 80° |
| 2026-05-05 13:09 | 22.53030 | 87.58424 | 36846 ft | 566 kts | 80° |
| 2026-05-05 13:09 | 22.54462 | 87.66786 | 36844 ft | 565 kts | 80° |
| 2026-05-05 13:10 | 22.55890 | 87.75147 | 36839 ft | 565 kts | 80° |
| 2026-05-05 13:10 | 22.57312 | 87.83504 | 36840 ft | 564 kts | 80° |
| 2026-05-05 13:11 | 22.58727 | 87.91850 | 36842 ft | 564 kts | 80° |
| 2026-05-05 13:11 | 22.60139 | 88.00202 | 36842 ft | 563 kts | 80° |
| 2026-05-05 13:12 | 22.61535 | 88.08487 | 36841 ft | 563 kts | 80° |
| 2026-05-05 13:12 | 22.62936 | 88.16826 | 36836 ft | 562 kts | 80° |
| 2026-05-05 13:13 | 22.64334 | 88.25180 | 36834 ft | 562 kts | 80° |
| 2026-05-05 13:13 | 22.65724 | 88.33506 | 36830 ft | 562 kts | 80° |
| 2026-05-05 13:14 | 22.66837 | 88.41860 | 36826 ft | 561 kts | 88° |
| 2026-05-05 13:14 | 22.66697 | 88.50282 | 36827 ft | 558 kts | 97° |
| 2026-05-05 13:15 | 22.65439 | 88.58535 | 36833 ft | 555 kts | 103° |
| 2026-05-05 13:15 | 22.63990 | 88.66694 | 36825 ft | 555 kts | 103° |
| 2026-05-05 13:16 | 22.62592 | 88.74920 | 36834 ft | 555 kts | 102° |
| 2026-05-05 13:16 | 22.61232 | 88.83136 | 36847 ft | 554 kts | 102° |
| 2026-05-05 13:17 | 22.59863 | 88.91345 | 36842 ft | 554 kts | 102° |
| 2026-05-05 13:17 | 22.58712 | 88.99581 | 36848 ft | 554 kts | 99° |
| 2026-05-05 13:18 | 22.57828 | 89.07876 | 36843 ft | 554 kts | 98° |
| 2026-05-05 13:18 | 22.56966 | 89.16155 | 36846 ft | 554 kts | 98° |
| 2026-05-05 13:19 | 22.56070 | 89.24422 | 36836 ft | 553 kts | 98° |
| 2026-05-05 13:19 | 22.55148 | 89.32693 | 36836 ft | 553 kts | 98° |
| 2026-05-05 13:20 | 22.54228 | 89.40886 | 36840 ft | 552 kts | 98° |
| 2026-05-05 13:20 | 22.53299 | 89.49138 | 36847 ft | 552 kts | 98° |
| 2026-05-05 13:21 | 22.52369 | 89.57384 | 36842 ft | 552 kts | 98° |
| 2026-05-05 13:21 | 22.51437 | 89.65616 | 36842 ft | 552 kts | 98° |
| 2026-05-05 13:22 | 22.50499 | 89.73850 | 36845 ft | 551 kts | 98° |
| 2026-05-05 13:22 | 22.49558 | 89.82080 | 36849 ft | 551 kts | 98° |
| 2026-05-05 13:23 | 22.48613 | 89.90308 | 36843 ft | 551 kts | 98° |
| 2026-05-05 13:23 | 22.47670 | 89.98476 | 36851 ft | 551 kts | 99° |
| 2026-05-05 13:24 | 22.46716 | 90.06707 | 36847 ft | 551 kts | 99° |
| 2026-05-05 13:24 | 22.45758 | 90.14926 | 36843 ft | 551 kts | 99° |
| 2026-05-05 13:25 | 22.44798 | 90.23138 | 36845 ft | 550 kts | 99° |
| 2026-05-05 13:25 | 22.43833 | 90.31344 | 36844 ft | 550 kts | 99° |
| 2026-05-05 13:26 | 22.42865 | 90.39545 | 36849 ft | 550 kts | 99° |
| 2026-05-05 13:26 | 22.41894 | 90.47736 | 36851 ft | 550 kts | 99° |
| 2026-05-05 13:27 | 22.40925 | 90.55882 | 36855 ft | 549 kts | 99° |
| 2026-05-05 13:27 | 22.39944 | 90.64079 | 36844 ft | 549 kts | 99° |
| 2026-05-05 13:28 | 22.38963 | 90.72252 | 36854 ft | 548 kts | 99° |
| 2026-05-05 13:28 | 22.37977 | 90.80419 | 36851 ft | 548 kts | 99° |
| 2026-05-05 13:29 | 22.36989 | 90.88574 | 36851 ft | 547 kts | 99° |
| 2026-05-05 13:29 | 22.36004 | 90.96672 | 36851 ft | 547 kts | 99° |
| 2026-05-05 13:30 | 22.35010 | 91.04813 | 36850 ft | 547 kts | 99° |
| 2026-05-05 13:30 | 22.34004 | 91.13009 | 36855 ft | 547 kts | 99° |
| 2026-05-05 13:31 | 22.33006 | 91.21106 | 36851 ft | 547 kts | 99° |
| 2026-05-05 13:31 | 22.31997 | 91.29263 | 36852 ft | 547 kts | 99° |
| 2026-05-05 13:32 | 22.30987 | 91.37404 | 36854 ft | 547 kts | 99° |
| 2026-05-05 13:32 | 22.30027 | 91.45560 | 36852 ft | 547 kts | 98° |
| 2026-05-05 13:33 | 22.29122 | 91.53724 | 36851 ft | 547 kts | 98° |
| 2026-05-05 13:33 | 22.28204 | 91.61882 | 36848 ft | 547 kts | 98° |
| 2026-05-05 13:34 | 22.27271 | 91.70022 | 36853 ft | 546 kts | 98° |
| 2026-05-05 13:34 | 22.26351 | 91.78166 | 36852 ft | 546 kts | 96° |
| 2026-05-05 13:35 | 22.26262 | 91.86300 | 36859 ft | 547 kts | 86° |
| 2026-05-05 13:35 | 22.27301 | 91.94433 | 36857 ft | 547 kts | 81° |
| 2026-05-05 13:36 | 22.28510 | 92.02539 | 36857 ft | 547 kts | 81° |
| 2026-05-05 13:36 | 22.29652 | 92.10663 | 36864 ft | 547 kts | 82° |
| 2026-05-05 13:37 | 22.30755 | 92.18784 | 36868 ft | 547 kts | 82° |
| 2026-05-05 13:37 | 22.31860 | 92.26905 | 36860 ft | 547 kts | 82° |
| 2026-05-05 13:38 | 22.32974 | 92.35034 | 36873 ft | 547 kts | 81° |
| 2026-05-05 13:38 | 22.34090 | 92.43155 | 36872 ft | 547 kts | 81° |
| 2026-05-05 13:39 | 22.35200 | 92.51274 | 36889 ft | 546 kts | 81° |
| 2026-05-05 13:39 | 22.36298 | 92.59348 | 36888 ft | 547 kts | 82° |
| 2026-05-05 13:40 | 22.37398 | 92.67470 | 36897 ft | 546 kts | 82° |
| 2026-05-05 13:40 | 22.38496 | 92.75606 | 36904 ft | 546 kts | 82° |
| 2026-05-05 13:41 | 22.39588 | 92.83709 | 36916 ft | 545 kts | 82° |
| 2026-05-05 13:41 | 22.40681 | 92.91818 | 36913 ft | 545 kts | 82° |
| 2026-05-05 13:42 | 22.41769 | 92.99927 | 36936 ft | 545 kts | 82° |
| 2026-05-05 13:42 | 22.42844 | 93.07984 | 36946 ft | 545 kts | 82° |
| 2026-05-05 13:43 | 22.43925 | 93.16114 | 36961 ft | 546 kts | 81° |
| 2026-05-05 13:43 | 22.45001 | 93.24228 | 36971 ft | 546 kts | 82° |
| 2026-05-05 13:44 | 22.46073 | 93.32365 | 36970 ft | 547 kts | 82° |
| 2026-05-05 13:44 | 22.47142 | 93.40505 | 36966 ft | 547 kts | 82° |
| 2026-05-05 13:45 | 22.48208 | 93.48648 | 36971 ft | 547 kts | 82° |
| 2026-05-05 13:45 | 22.49271 | 93.56803 | 36960 ft | 547 kts | 82° |
| 2026-05-05 13:46 | 22.50328 | 93.64943 | 36925 ft | 547 kts | 82° |
| 2026-05-05 13:46 | 22.51381 | 93.73083 | 36918 ft | 546 kts | 82° |
| 2026-05-05 13:47 | 22.52419 | 93.81149 | 36900 ft | 545 kts | 82° |
| 2026-05-05 13:47 | 22.53460 | 93.89262 | 36893 ft | 544 kts | 82° |
| 2026-05-05 13:48 | 22.54495 | 93.97367 | 36877 ft | 544 kts | 82° |
| 2026-05-05 13:48 | 22.55527 | 94.05474 | 36861 ft | 544 kts | 82° |
| 2026-05-05 13:49 | 22.56553 | 94.13574 | 36858 ft | 543 kts | 82° |
| 2026-05-05 13:49 | 22.57576 | 94.21681 | 36852 ft | 543 kts | 82° |
| 2026-05-05 13:50 | 22.58595 | 94.29793 | 36843 ft | 543 kts | 82° |
| 2026-05-05 13:50 | 22.59602 | 94.37834 | 36843 ft | 543 kts | 82° |
| 2026-05-05 13:51 | 22.60613 | 94.45948 | 36841 ft | 544 kts | 82° |
| 2026-05-05 13:51 | 22.61621 | 94.54069 | 36840 ft | 544 kts | 82° |
| 2026-05-05 13:52 | 22.62625 | 94.62198 | 36831 ft | 545 kts | 82° |
| 2026-05-05 13:52 | 22.63627 | 94.70339 | 36834 ft | 546 kts | 82° |
| 2026-05-05 13:53 | 22.64627 | 94.78493 | 36825 ft | 546 kts | 82° |
| 2026-05-05 13:53 | 22.65616 | 94.86601 | 36823 ft | 547 kts | 82° |
| 2026-05-05 13:54 | 22.66607 | 94.94764 | 36823 ft | 547 kts | 82° |
| 2026-05-05 13:54 | 22.67594 | 95.02922 | 36818 ft | 547 kts | 82° |
| 2026-05-05 13:55 | 22.68577 | 95.11080 | 36814 ft | 546 kts | 82° |
| 2026-05-05 13:55 | 22.69556 | 95.19239 | 36814 ft | 546 kts | 82° |
| 2026-05-05 13:56 | 22.70527 | 95.27380 | 36817 ft | 545 kts | 82° |
| 2026-05-05 13:56 | 22.71497 | 95.35530 | 36817 ft | 545 kts | 82° |
| 2026-05-05 13:57 | 22.72461 | 95.43677 | 36815 ft | 545 kts | 83° |
| 2026-05-05 13:57 | 22.73421 | 95.51827 | 36813 ft | 545 kts | 83° |
| 2026-05-05 13:58 | 22.74376 | 95.59970 | 36816 ft | 545 kts | 83° |
| 2026-05-05 13:58 | 22.75328 | 95.68124 | 36811 ft | 545 kts | 83° |
| 2026-05-05 13:59 | 22.76589 | 95.78975 | 36821 ft | 545 kts | 83° |
| 2026-05-05 14:00 | 22.78001 | 95.91207 | 36831 ft | 546 kts | 83° |
| 2026-05-05 14:00 | 22.78938 | 95.99371 | 36845 ft | 546 kts | 83° |
| 2026-05-05 14:01 | 22.79871 | 96.07534 | 36847 ft | 546 kts | 83° |
| 2026-05-05 14:01 | 22.80800 | 96.15704 | 36881 ft | 546 kts | 83° |
| 2026-05-05 14:02 | 22.81725 | 96.23868 | 36881 ft | 546 kts | 83° |
| 2026-05-05 14:02 | 22.82645 | 96.32049 | 36891 ft | 547 kts | 83° |
| 2026-05-05 14:03 | 22.83563 | 96.40235 | 36893 ft | 546 kts | 83° |
| 2026-05-05 14:03 | 22.84478 | 96.48420 | 36891 ft | 547 kts | 83° |
| 2026-05-05 14:04 | 22.85387 | 96.56596 | 36914 ft | 546 kts | 83° |
| 2026-05-05 14:04 | 22.86291 | 96.64765 | 36916 ft | 546 kts | 83° |
| 2026-05-05 14:05 | 22.87189 | 96.72934 | 36925 ft | 546 kts | 83° |
| 2026-05-05 14:05 | 22.88083 | 96.81103 | 36932 ft | 546 kts | 83° |
| 2026-05-05 14:06 | 22.88968 | 96.89225 | 36922 ft | 546 kts | 83° |
| 2026-05-05 14:06 | 22.89856 | 96.97401 | 36927 ft | 545 kts | 83° |
| 2026-05-05 14:07 | 22.90737 | 97.05567 | 36928 ft | 545 kts | 83° |
| 2026-05-05 14:07 | 22.91614 | 97.13730 | 36934 ft | 545 kts | 83° |
| 2026-05-05 14:08 | 22.92487 | 97.21897 | 36924 ft | 545 kts | 83° |
| 2026-05-05 14:08 | 22.93354 | 97.30051 | 36924 ft | 544 kts | 83° |
| 2026-05-05 14:09 | 22.94217 | 97.38204 | 36941 ft | 544 kts | 83° |
| 2026-05-05 14:09 | 22.95077 | 97.46369 | 36911 ft | 544 kts | 83° |
| 2026-05-05 14:10 | 22.95931 | 97.54516 | 36917 ft | 544 kts | 83° |
| 2026-05-05 14:10 | 22.96782 | 97.62668 | 36910 ft | 544 kts | 83° |
| 2026-05-05 14:11 | 22.97633 | 97.70822 | 36930 ft | 543 kts | 82° |
| 2026-05-05 14:11 | 22.99198 | 97.78829 | 36916 ft | 541 kts | 71° |
| 2026-05-05 14:12 | 23.01786 | 97.86483 | 36927 ft | 540 kts | 68° |
| 2026-05-05 14:12 | 23.04461 | 97.94051 | 36926 ft | 540 kts | 68° |
| 2026-05-05 14:13 | 23.07110 | 98.01692 | 36950 ft | 540 kts | 68° |
| 2026-05-05 14:13 | 23.09726 | 98.09359 | 36953 ft | 540 kts | 68° |
| 2026-05-05 14:14 | 23.12329 | 98.17024 | 36940 ft | 541 kts | 68° |
| 2026-05-05 14:14 | 23.14929 | 98.24683 | 36939 ft | 541 kts | 68° |
| 2026-05-05 14:15 | 23.17531 | 98.32356 | 36959 ft | 541 kts | 68° |
| 2026-05-05 14:15 | 23.20129 | 98.40026 | 36931 ft | 541 kts | 68° |
| 2026-05-05 14:16 | 23.22730 | 98.47720 | 36953 ft | 542 kts | 68° |
| 2026-05-05 14:16 | 23.25324 | 98.55411 | 36929 ft | 541 kts | 68° |
| 2026-05-05 14:17 | 23.27912 | 98.63096 | 36938 ft | 541 kts | 68° |
| 2026-05-05 14:17 | 23.30476 | 98.70727 | 36934 ft | 540 kts | 68° |
| 2026-05-05 14:18 | 23.33053 | 98.78407 | 36945 ft | 540 kts | 68° |
| 2026-05-05 14:18 | 23.35625 | 98.86087 | 36985 ft | 539 kts | 68° |
| 2026-05-05 14:19 | 23.38179 | 98.93760 | 37049 ft | 539 kts | 69° |
| 2026-05-05 14:19 | 23.40606 | 99.01482 | 37076 ft | 539 kts | 70° |
| 2026-05-05 14:20 | 23.42990 | 99.09220 | 37067 ft | 539 kts | 70° |
| 2026-05-05 14:20 | 23.45397 | 99.16971 | 37078 ft | 540 kts | 70° |
| 2026-05-05 14:21 | 23.47812 | 99.24724 | 37069 ft | 541 kts | 70° |
| 2026-05-05 14:21 | 23.50227 | 99.32493 | 37090 ft | 542 kts | 70° |
| 2026-05-05 14:22 | 23.52731 | 99.40224 | 37073 ft | 540 kts | 65° |
| 2026-05-05 14:22 | 23.56119 | 99.47436 | 37081 ft | 537 kts | 57° |
| 2026-05-05 14:23 | 23.59876 | 99.54459 | 37071 ft | 537 kts | 57° |
| 2026-05-05 14:23 | 23.63621 | 99.61512 | 37072 ft | 537 kts | 58° |
| 2026-05-05 14:24 | 23.67326 | 99.68601 | 37070 ft | 537 kts | 58° |
| 2026-05-05 14:24 | 23.71007 | 99.75688 | 37079 ft | 536 kts | 58° |
| 2026-05-05 14:25 | 23.74683 | 99.82775 | 37078 ft | 537 kts | 58° |
| 2026-05-05 14:25 | 23.78373 | 99.89884 | 37054 ft | 539 kts | 58° |
| 2026-05-05 14:26 | 23.82037 | 99.96964 | 37073 ft | 539 kts | 58° |
| 2026-05-05 14:26 | 23.85725 | 100.04094 | 37083 ft | 539 kts | 58° |
| 2026-05-05 14:27 | 23.89415 | 100.11239 | 37066 ft | 540 kts | 58° |
| 2026-05-05 14:27 | 23.93101 | 100.18387 | 37076 ft | 540 kts | 58° |
| 2026-05-05 14:28 | 23.96786 | 100.25544 | 37072 ft | 539 kts | 58° |
| 2026-05-05 14:28 | 24.00466 | 100.32702 | 37057 ft | 540 kts | 58° |
| 2026-05-05 14:29 | 24.04137 | 100.39852 | 37067 ft | 539 kts | 58° |
| 2026-05-05 14:29 | 24.07784 | 100.46966 | 37050 ft | 539 kts | 58° |
| 2026-05-05 14:30 | 24.11467 | 100.54162 | 37063 ft | 539 kts | 58° |
| 2026-05-05 14:30 | 24.15080 | 100.61288 | 37076 ft | 538 kts | 58° |
| 2026-05-05 14:31 | 24.18676 | 100.68478 | 37053 ft | 538 kts | 58° |
| 2026-05-05 14:31 | 24.22264 | 100.75666 | 37074 ft | 538 kts | 58° |
| 2026-05-05 14:32 | 24.25855 | 100.82857 | 37075 ft | 538 kts | 58° |
| 2026-05-05 14:32 | 24.29447 | 100.90053 | 37084 ft | 537 kts | 58° |
| 2026-05-05 14:33 | 24.33031 | 100.97245 | 37082 ft | 538 kts | 58° |
| 2026-05-05 14:33 | 24.36622 | 101.04459 | 37076 ft | 539 kts | 58° |
| 2026-05-05 14:34 | 24.40218 | 101.11698 | 37081 ft | 540 kts | 58° |
| 2026-05-05 14:34 | 24.43813 | 101.18946 | 37072 ft | 541 kts | 58° |
| 2026-05-05 14:35 | 24.47407 | 101.26205 | 37078 ft | 541 kts | 58° |
| 2026-05-05 14:35 | 24.51001 | 101.33472 | 37070 ft | 542 kts | 58° |
| 2026-05-05 14:36 | 24.54590 | 101.40743 | 37058 ft | 541 kts | 58° |
| 2026-05-05 14:36 | 24.58172 | 101.48011 | 37064 ft | 540 kts | 58° |
| 2026-05-05 14:37 | 24.61259 | 101.55533 | 37065 ft | 544 kts | 70° |
| 2026-05-05 14:37 | 24.62807 | 101.63699 | 37055 ft | 549 kts | 84° |
| 2026-05-05 14:38 | 24.63182 | 101.72035 | 37075 ft | 550 kts | 86° |
| 2026-05-05 14:38 | 24.63480 | 101.80441 | 37076 ft | 551 kts | 86° |
| 2026-05-05 14:39 | 24.63841 | 101.88848 | 37103 ft | 552 kts | 86° |
| 2026-05-05 14:39 | 24.64245 | 101.97289 | 37090 ft | 553 kts | 85° |
| 2026-05-05 14:40 | 24.64639 | 102.05721 | 37105 ft | 551 kts | 85° |
| 2026-05-05 14:40 | 24.65024 | 102.14132 | 37103 ft | 550 kts | 86° |
| 2026-05-05 14:41 | 24.65402 | 102.22516 | 37124 ft | 548 kts | 85° |
| 2026-05-05 14:41 | 24.65774 | 102.30868 | 37127 ft | 547 kts | 85° |
| 2026-05-05 14:42 | 24.66139 | 102.39163 | 37134 ft | 546 kts | 85° |
| 2026-05-05 14:42 | 24.66503 | 102.47496 | 37143 ft | 546 kts | 85° |
| 2026-05-05 14:43 | 24.66858 | 102.55828 | 37140 ft | 546 kts | 86° |
| 2026-05-05 14:43 | 24.67319 | 102.64146 | 37147 ft | 545 kts | 84° |
| 2026-05-05 14:44 | 24.67852 | 102.72455 | 37148 ft | 545 kts | 85° |
| 2026-05-05 14:44 | 24.67617 | 102.79384 | 37151 ft | 547 kts | 97° |
| 2026-05-05 14:45 | 24.65928 | 102.87531 | 37136 ft | 548 kts | 110° |
| 2026-05-05 14:45 | 24.63219 | 102.95352 | 37147 ft | 547 kts | 111° |
| 2026-05-05 14:46 | 24.60496 | 103.03174 | 37128 ft | 548 kts | 110° |
| 2026-05-05 14:46 | 24.57855 | 103.11031 | 37127 ft | 548 kts | 110° |
| 2026-05-05 14:47 | 24.55829 | 103.19088 | 37130 ft | 547 kts | 99° |
| 2026-05-05 14:47 | 24.55002 | 103.27371 | 37130 ft | 545 kts | 90° |
| 2026-05-05 14:48 | 24.54905 | 103.35691 | 37132 ft | 545 kts | 89° |
| 2026-05-05 14:48 | 24.54818 | 103.44009 | 37130 ft | 544 kts | 89° |
| 2026-05-05 14:49 | 24.54664 | 103.52312 | 37132 ft | 544 kts | 90° |
| 2026-05-05 14:49 | 24.54488 | 103.60608 | 37130 ft | 543 kts | 90° |
| 2026-05-05 14:50 | 24.54316 | 103.68855 | 37119 ft | 543 kts | 90° |
| 2026-05-05 14:50 | 24.53685 | 103.77115 | 37114 ft | 544 kts | 99° |
| 2026-05-05 14:51 | 24.51994 | 103.85212 | 37116 ft | 544 kts | 103° |
| 2026-05-05 14:51 | 24.50190 | 103.93286 | 37101 ft | 544 kts | 103° |
| 2026-05-05 14:52 | 24.48429 | 104.01366 | 37087 ft | 544 kts | 102° |
| 2026-05-05 14:52 | 24.46700 | 104.09443 | 37081 ft | 543 kts | 103° |
| 2026-05-05 14:53 | 24.44972 | 104.17527 | 37067 ft | 543 kts | 102° |
| 2026-05-05 14:53 | 24.43242 | 104.25586 | 37057 ft | 542 kts | 102° |
| 2026-05-05 14:54 | 24.41508 | 104.33626 | 37055 ft | 542 kts | 103° |
| 2026-05-05 14:54 | 24.39767 | 104.41669 | 37043 ft | 542 kts | 102° |
| 2026-05-05 14:55 | 24.38023 | 104.49706 | 37023 ft | 542 kts | 103° |
| 2026-05-05 14:55 | 24.36275 | 104.57743 | 37029 ft | 541 kts | 103° |
| 2026-05-05 14:56 | 24.34522 | 104.65782 | 37023 ft | 542 kts | 103° |
| 2026-05-05 14:56 | 24.32765 | 104.73821 | 37016 ft | 542 kts | 103° |
| 2026-05-05 14:57 | 24.31000 | 104.81872 | 37014 ft | 543 kts | 103° |
| 2026-05-05 14:57 | 24.29240 | 104.89875 | 37004 ft | 544 kts | 103° |
| 2026-05-05 14:58 | 24.27464 | 104.97935 | 37003 ft | 544 kts | 103° |
| 2026-05-05 14:58 | 24.25683 | 105.05996 | 37006 ft | 544 kts | 103° |
| 2026-05-05 14:59 | 24.23898 | 105.14053 | 37000 ft | 544 kts | 103° |
| 2026-05-05 14:59 | 24.22109 | 105.22106 | 37006 ft | 544 kts | 103° |
| 2026-05-05 15:00 | 24.20541 | 105.28770 | 37010 ft | 543 kts | 104° |
| 2026-05-05 15:00 | 24.18240 | 105.38131 | 37005 ft | 543 kts | 105° |
| 2026-05-05 15:01 | 24.16286 | 105.46123 | 37001 ft | 543 kts | 105° |
| 2026-05-05 15:01 | 24.14348 | 105.54101 | 37004 ft | 542 kts | 105° |
| 2026-05-05 15:02 | 24.12409 | 105.62074 | 36994 ft | 542 kts | 105° |
| 2026-05-05 15:02 | 24.10465 | 105.70035 | 36994 ft | 542 kts | 105° |
| 2026-05-05 15:03 | 24.08722 | 105.78057 | 37003 ft | 542 kts | 102° |
| 2026-05-05 15:03 | 24.07200 | 105.86098 | 36997 ft | 543 kts | 101° |
| 2026-05-05 15:04 | 24.05645 | 105.94191 | 36994 ft | 544 kts | 102° |
| 2026-05-05 15:04 | 24.04033 | 106.02297 | 36992 ft | 544 kts | 102° |
| 2026-05-05 15:05 | 24.01587 | 106.14418 | 36993 ft | 545 kts | 102° |
| 2026-05-05 15:06 | 23.99956 | 106.22504 | 36998 ft | 545 kts | 102° |
| 2026-05-05 15:06 | 23.98324 | 106.30583 | 36989 ft | 546 kts | 102° |
| 2026-05-05 15:07 | 23.96680 | 106.38695 | 36984 ft | 545 kts | 102° |
| 2026-05-05 15:07 | 23.95037 | 106.46781 | 36989 ft | 545 kts | 102° |
| 2026-05-05 15:08 | 23.93389 | 106.54871 | 36996 ft | 545 kts | 102° |
| 2026-05-05 15:08 | 23.92016 | 106.62992 | 36990 ft | 544 kts | 95° |
| 2026-05-05 15:09 | 23.91476 | 106.71237 | 36998 ft | 544 kts | 92° |
| 2026-05-05 15:09 | 23.91010 | 106.79486 | 37007 ft | 543 kts | 93° |
| 2026-05-05 15:10 | 23.90496 | 106.87734 | 36999 ft | 544 kts | 93° |
| 2026-05-05 15:10 | 23.89946 | 106.95967 | 37003 ft | 544 kts | 94° |
| 2026-05-05 15:11 | 23.89383 | 107.04217 | 37008 ft | 544 kts | 94° |
| 2026-05-05 15:11 | 23.88820 | 107.12459 | 36997 ft | 544 kts | 94° |
| 2026-05-05 15:12 | 23.88255 | 107.20700 | 37009 ft | 544 kts | 94° |
| 2026-05-05 15:12 | 23.87686 | 107.28941 | 37004 ft | 544 kts | 94° |
| 2026-05-05 15:13 | 23.87114 | 107.37180 | 36991 ft | 544 kts | 94° |
| 2026-05-05 15:13 | 23.86535 | 107.45426 | 37014 ft | 544 kts | 94° |
| 2026-05-05 15:14 | 23.85953 | 107.53667 | 37019 ft | 544 kts | 94° |
| 2026-05-05 15:14 | 23.85370 | 107.61859 | 37002 ft | 544 kts | 94° |
| 2026-05-05 15:15 | 23.84779 | 107.70106 | 37003 ft | 545 kts | 94° |
| 2026-05-05 15:15 | 23.84183 | 107.78360 | 37003 ft | 545 kts | 94° |
| 2026-05-05 15:16 | 23.83590 | 107.86613 | 37023 ft | 545 kts | 93° |
| 2026-05-05 15:16 | 23.83157 | 107.94873 | 37009 ft | 544 kts | 92° |
| 2026-05-05 15:17 | 23.82774 | 108.03125 | 37023 ft | 544 kts | 92° |
| 2026-05-05 15:17 | 23.82354 | 108.11379 | 37023 ft | 544 kts | 92° |
| 2026-05-05 15:18 | 23.81915 | 108.19650 | 37011 ft | 545 kts | 92° |
| 2026-05-05 15:18 | 23.81454 | 108.27850 | 37016 ft | 545 kts | 92° |
| 2026-05-05 15:19 | 23.80978 | 108.36124 | 37018 ft | 546 kts | 92° |
| 2026-05-05 15:19 | 23.80500 | 108.44410 | 37004 ft | 546 kts | 92° |
| 2026-05-05 15:20 | 23.80024 | 108.52691 | 37019 ft | 546 kts | 92° |
| 2026-05-05 15:20 | 23.79541 | 108.60969 | 37009 ft | 546 kts | 92° |
| 2026-05-05 15:21 | 23.79054 | 108.69247 | 37006 ft | 547 kts | 93° |
| 2026-05-05 15:21 | 23.78562 | 108.77531 | 37016 ft | 547 kts | 93° |
| 2026-05-05 15:22 | 23.78064 | 108.85827 | 37004 ft | 548 kts | 93° |
| 2026-05-05 15:22 | 23.77562 | 108.94134 | 37008 ft | 548 kts | 93° |
| 2026-05-05 15:23 | 23.77056 | 109.02439 | 36999 ft | 549 kts | 93° |
| 2026-05-05 15:23 | 23.76544 | 109.10758 | 36997 ft | 549 kts | 93° |
| 2026-05-05 15:24 | 23.75569 | 109.18974 | 36998 ft | 550 kts | 102° |
| 2026-05-05 15:24 | 23.73882 | 109.27131 | 37005 ft | 551 kts | 103° |
| 2026-05-05 15:25 | 23.72152 | 109.35284 | 36996 ft | 552 kts | 103° |
| 2026-05-05 15:25 | 23.70464 | 109.43467 | 37005 ft | 552 kts | 102° |
| 2026-05-05 15:26 | 23.68802 | 109.51652 | 37011 ft | 553 kts | 102° |
| 2026-05-05 15:26 | 23.67137 | 109.59839 | 37013 ft | 553 kts | 102° |
| 2026-05-05 15:27 | 23.65461 | 109.68032 | 37019 ft | 553 kts | 102° |
| 2026-05-05 15:27 | 23.63777 | 109.76229 | 37030 ft | 553 kts | 102° |
| 2026-05-05 15:28 | 23.62091 | 109.84416 | 37035 ft | 554 kts | 102° |
| 2026-05-05 15:28 | 23.60398 | 109.92617 | 37038 ft | 554 kts | 102° |
| 2026-05-05 15:29 | 23.58713 | 110.00757 | 37039 ft | 554 kts | 102° |
| 2026-05-05 15:29 | 23.57009 | 110.08959 | 37037 ft | 555 kts | 102° |
| 2026-05-05 15:30 | 23.55303 | 110.17157 | 37038 ft | 555 kts | 102° |
| 2026-05-05 15:30 | 23.53588 | 110.25372 | 37039 ft | 556 kts | 102° |
| 2026-05-05 15:31 | 23.52159 | 110.32201 | 37043 ft | 557 kts | 102° |
| 2026-05-05 15:31 | 23.50444 | 110.40433 | 37046 ft | 557 kts | 102° |
| 2026-05-05 15:32 | 23.48771 | 110.48693 | 37046 ft | 558 kts | 102° |
| 2026-05-05 15:32 | 23.47097 | 110.56956 | 37049 ft | 559 kts | 102° |
| 2026-05-05 15:33 | 23.45410 | 110.65219 | 37053 ft | 559 kts | 102° |
| 2026-05-05 15:33 | 23.43714 | 110.73487 | 37060 ft | 560 kts | 102° |
| 2026-05-05 15:34 | 23.41970 | 110.81754 | 37061 ft | 561 kts | 102° |
| 2026-05-05 15:34 | 23.40202 | 110.90038 | 37061 ft | 562 kts | 102° |
| 2026-05-05 15:35 | 23.38438 | 110.98318 | 37064 ft | 562 kts | 102° |
| 2026-05-05 15:35 | 23.36670 | 111.06615 | 37063 ft | 562 kts | 102° |
| 2026-05-05 15:36 | 23.34898 | 111.14910 | 37072 ft | 563 kts | 102° |
| 2026-05-05 15:36 | 23.33186 | 111.23224 | 37070 ft | 563 kts | 101° |
| 2026-05-05 15:37 | 23.31520 | 111.31553 | 37074 ft | 564 kts | 101° |
| 2026-05-05 15:37 | 23.29835 | 111.39890 | 37072 ft | 564 kts | 101° |
| 2026-05-05 15:38 | 23.28136 | 111.48217 | 37073 ft | 564 kts | 101° |
| 2026-05-05 15:38 | 23.26421 | 111.56545 | 37082 ft | 564 kts | 101° |
| 2026-05-05 15:39 | 23.24635 | 111.64865 | 37082 ft | 565 kts | 102° |
| 2026-05-05 15:39 | 23.22843 | 111.73175 | 37084 ft | 565 kts | 101° |
| 2026-05-05 15:40 | 23.21058 | 111.81496 | 37086 ft | 565 kts | 101° |
| 2026-05-05 15:40 | 23.19302 | 111.89819 | 37094 ft | 565 kts | 101° |
| 2026-05-05 15:41 | 23.17585 | 111.98149 | 37095 ft | 565 kts | 101° |
| 2026-05-05 15:41 | 23.15861 | 112.06480 | 37096 ft | 565 kts | 101° |
| 2026-05-05 15:42 | 23.14125 | 112.14801 | 37098 ft | 565 kts | 101° |
| 2026-05-05 15:42 | 23.12382 | 112.23124 | 37093 ft | 565 kts | 101° |
| 2026-05-05 15:43 | 23.10648 | 112.31383 | 37096 ft | 565 kts | 101° |
| 2026-05-05 15:43 | 23.08897 | 112.39711 | 37088 ft | 565 kts | 101° |
| 2026-05-05 15:44 | 23.07195 | 112.48029 | 37099 ft | 563 kts | 98° |
| 2026-05-05 15:44 | 23.06353 | 112.56452 | 37098 ft | 561 kts | 91° |
| 2026-05-05 15:45 | 23.05875 | 112.64900 | 37085 ft | 561 kts | 91° |
| 2026-05-05 15:45 | 23.05358 | 112.73369 | 37085 ft | 562 kts | 91° |
| 2026-05-05 15:46 | 23.04785 | 112.81827 | 37084 ft | 562 kts | 92° |
| 2026-05-05 15:46 | 23.04198 | 112.90290 | 37084 ft | 562 kts | 92° |
| 2026-05-05 15:47 | 23.03613 | 112.98756 | 37087 ft | 562 kts | 92° |
| 2026-05-05 15:47 | 23.03026 | 113.07214 | 37084 ft | 561 kts | 93° |
| 2026-05-05 15:47 | 23.02314 | 113.11378 | 37026 ft | 563 kts | 108° |
| 2026-05-05 15:48 | 23.00668 | 113.15211 | 36791 ft | 559 kts | 124° |
| 2026-05-05 15:48 | 22.98212 | 113.18448 | 36314 ft | 556 kts | 139° |
| 2026-05-05 15:48 | 22.95201 | 113.21056 | 35792 ft | 552 kts | 151° |
| 2026-05-05 15:48 | 22.91793 | 113.22906 | 35235 ft | 542 kts | 166° |
| 2026-05-05 15:49 | 22.88199 | 113.24108 | 34652 ft | 541 kts | 168° |
| 2026-05-05 15:49 | 22.84583 | 113.25244 | 34112 ft | 542 kts | 168° |
| 2026-05-05 15:49 | 22.80964 | 113.26402 | 33513 ft | 542 kts | 167° |
| 2026-05-05 15:49 | 22.77347 | 113.27605 | 32812 ft | 545 kts | 167° |
| 2026-05-05 15:50 | 22.73729 | 113.28850 | 32227 ft | 545 kts | 166° |
| 2026-05-05 15:50 | 22.70170 | 113.30095 | 31790 ft | 543 kts | 166° |
| 2026-05-05 15:50 | 22.66545 | 113.31364 | 31402 ft | 539 kts | 166° |
| 2026-05-05 15:50 | 22.63119 | 113.32555 | 31028 ft | 536 kts | 166° |
| 2026-05-05 15:51 | 22.59574 | 113.33781 | 30620 ft | 534 kts | 166° |
| 2026-05-05 15:51 | 22.56037 | 113.35005 | 30196 ft | 533 kts | 166° |
| 2026-05-05 15:51 | 22.52510 | 113.36225 | 29744 ft | 532 kts | 166° |
| 2026-05-05 15:51 | 22.49002 | 113.37441 | 29356 ft | 525 kts | 166° |
| 2026-05-05 15:52 | 22.45548 | 113.38638 | 28922 ft | 518 kts | 166° |
| 2026-05-05 15:52 | 22.42141 | 113.39818 | 28392 ft | 513 kts | 166° |
| 2026-05-05 15:52 | 22.38752 | 113.40989 | 27861 ft | 508 kts | 166° |
| 2026-05-05 15:52 | 22.35390 | 113.42150 | 27252 ft | 502 kts | 166° |
| 2026-05-05 15:53 | 22.32131 | 113.43278 | 26310 ft | 490 kts | 166° |
| 2026-05-05 15:53 | 22.28871 | 113.44401 | 25603 ft | 492 kts | 166° |
| 2026-05-05 15:53 | 22.25620 | 113.45520 | 25112 ft | 488 kts | 166° |
| 2026-05-05 15:53 | 22.22409 | 113.46628 | 24499 ft | 484 kts | 166° |
| 2026-05-05 15:54 | 22.19198 | 113.47759 | 23690 ft | 487 kts | 165° |
| 2026-05-05 15:54 | 22.15993 | 113.48924 | 22876 ft | 484 kts | 165° |
| 2026-05-05 15:54 | 22.12882 | 113.50071 | 22170 ft | 458 kts | 165° |
| 2026-05-05 15:54 | 22.09886 | 113.51172 | 21576 ft | 454 kts | 165° |
| 2026-05-05 15:55 | 22.06909 | 113.52254 | 20953 ft | 450 kts | 165° |
| 2026-05-05 15:55 | 22.03948 | 113.53327 | 20350 ft | 447 kts | 165° |
| 2026-05-05 15:55 | 22.01012 | 113.54390 | 19745 ft | 444 kts | 165° |
| 2026-05-05 15:55 | 21.98090 | 113.55457 | 19131 ft | 442 kts | 163° |
| 2026-05-05 15:56 | 21.95227 | 113.56671 | 18518 ft | 442 kts | 160° |
| 2026-05-05 15:56 | 21.92415 | 113.57996 | 17820 ft | 441 kts | 159° |
| 2026-05-05 15:56 | 21.89622 | 113.59343 | 17148 ft | 439 kts | 159° |
| 2026-05-05 15:56 | 21.87006 | 113.60592 | 16541 ft | 423 kts | 159° |
| 2026-05-05 15:57 | 21.84251 | 113.61877 | 15964 ft | 419 kts | 160° |
| 2026-05-05 15:57 | 21.81582 | 113.63107 | 15399 ft | 415 kts | 160° |
| 2026-05-05 15:57 | 21.78936 | 113.64323 | 14840 ft | 412 kts | 160° |
| 2026-05-05 15:57 | 21.76370 | 113.65621 | 14270 ft | 405 kts | 150° |
| 2026-05-05 15:58 | 21.74274 | 113.67656 | 13702 ft | 410 kts | 129° |
| 2026-05-05 15:58 | 21.72923 | 113.70350 | 13079 ft | 412 kts | 109° |
| 2026-05-05 15:58 | 21.72432 | 113.73311 | 12711 ft | 406 kts | 92° |
| 2026-05-05 15:58 | 21.72793 | 113.76337 | 12187 ft | 402 kts | 73° |
| 2026-05-05 15:59 | 21.73902 | 113.79031 | 11644 ft | 399 kts | 57° |
| 2026-05-05 15:59 | 21.75669 | 113.81277 | 11083 ft | 384 kts | 41° |
| 2026-05-05 15:59 | 21.77602 | 113.83102 | 10619 ft | 355 kts | 39° |
| 2026-05-05 15:59 | 21.79419 | 113.84788 | 10302 ft | 341 kts | 39° |
| 2026-05-05 16:00 | 21.81192 | 113.86474 | 9990 ft | 339 kts | 40° |
| 2026-05-05 16:00 | 21.82903 | 113.88078 | 9689 ft | 313 kts | 34° |
| 2026-05-05 16:00 | 21.84800 | 113.89003 | 9254 ft | 289 kts | 7° |
| 2026-05-05 16:00 | 21.86733 | 113.89083 | 8987 ft | 274 kts | 352° |
| 2026-05-05 16:01 | 21.88592 | 113.88656 | 8712 ft | 276 kts | 337° |
| 2026-05-05 16:01 | 21.90371 | 113.87849 | 8438 ft | 280 kts | 332° |
| 2026-05-05 16:01 | 21.92139 | 113.86939 | 8141 ft | 282 kts | 331° |
| 2026-05-05 16:01 | 21.93904 | 113.86023 | 7846 ft | 281 kts | 332° |
| 2026-05-05 16:02 | 21.95656 | 113.85120 | 7556 ft | 278 kts | 332° |
| 2026-05-05 16:02 | 21.97402 | 113.84231 | 7277 ft | 276 kts | 332° |
| 2026-05-05 16:02 | 21.99137 | 113.83354 | 6999 ft | 274 kts | 333° |
| 2026-05-05 16:02 | 22.00861 | 113.82490 | 6726 ft | 272 kts | 333° |
| 2026-05-05 16:03 | 22.02572 | 113.81633 | 6461 ft | 271 kts | 333° |
| 2026-05-05 16:03 | 22.04273 | 113.80783 | 6172 ft | 269 kts | 333° |
| 2026-05-05 16:03 | 22.05972 | 113.79934 | 5877 ft | 268 kts | 333° |
| 2026-05-05 16:03 | 22.07654 | 113.79099 | 5607 ft | 266 kts | 333° |
| 2026-05-05 16:04 | 22.09332 | 113.78263 | 5351 ft | 265 kts | 333° |
| 2026-05-05 16:04 | 22.10997 | 113.77432 | 5101 ft | 263 kts | 333° |
| 2026-05-05 16:04 | 22.12634 | 113.76615 | 4950 ft | 256 kts | 333° |
| 2026-05-05 16:04 | 22.14241 | 113.75813 | 4765 ft | 249 kts | 333° |
| 2026-05-05 16:05 | 22.15726 | 113.75075 | 4558 ft | 229 kts | 334° |
| 2026-05-05 16:05 | 22.17130 | 113.74375 | 4243 ft | 216 kts | 334° |
| 2026-05-05 16:05 | 22.18457 | 113.73711 | 3912 ft | 206 kts | 334° |
| 2026-05-05 16:05 | 22.19718 | 113.73081 | 3658 ft | 195 kts | 334° |
| 2026-05-05 16:06 | 22.20974 | 113.72454 | 3518 ft | 205 kts | 334° |
| 2026-05-05 16:06 | 22.22281 | 113.71816 | 3267 ft | 203 kts | 340° |
| 2026-05-05 16:06 | 22.23625 | 113.71761 | 3050 ft | 189 kts | 22° |
| 2026-05-05 16:06 | 22.24746 | 113.72490 | 2891 ft | 189 kts | 41° |
| 2026-05-05 16:07 | 22.25743 | 113.73394 | 2700 ft | 186 kts | 44° |
| 2026-05-05 16:07 | 22.26713 | 113.74295 | 2469 ft | 180 kts | 45° |
| 2026-05-05 16:07 | 22.27620 | 113.75145 | 2277 ft | 165 kts | 47° |
| 2026-05-05 16:07 | 22.28215 | 113.76158 | 2138 ft | 157 kts | 73° |
| 2026-05-05 16:08 | 22.28587 | 113.77275 | 1999 ft | 159 kts | 71° |
| 2026-05-05 16:08 | 22.28974 | 113.78381 | 1812 ft | 157 kts | 72° |
| 2026-05-05 16:08 | 22.29337 | 113.79481 | 1662 ft | 155 kts | 73° |
| 2026-05-05 16:08 | 22.29684 | 113.80554 | 1485 ft | 150 kts | 73° |
| 2026-05-05 16:09 | 22.30025 | 113.81609 | 1293 ft | 147 kts | 72° |
| 2026-05-05 16:09 | 22.30357 | 113.82637 | 1093 ft | 146 kts | 72° |
| 2026-05-05 16:09 | 22.30694 | 113.83681 | 933 ft | 146 kts | 72° |
| 2026-05-05 16:09 | 22.31018 | 113.84682 | 727 ft | 139 kts | 72° |
| 2026-05-05 16:10 | 22.31330 | 113.85652 | 579 ft | 136 kts | 73° |
| 2026-05-05 16:10 | 22.31639 | 113.86599 | 376 ft | 133 kts | 73° |
| 2026-05-05 16:10 | 22.31947 | 113.87542 | 238 ft | 134 kts | 73° |
| 2026-05-05 16:10 | 22.32256 | 113.88504 | 66 ft | 134 kts | 73° |
| 2026-05-05 16:11 | 22.32531 | 113.89366 | 41 ft | 108 kts | 70° |
| 2026-05-05 16:11 | 22.32937 | 113.90640 | 42 ft | 29 kts | 80° |
| 2026-05-05 16:12 | 22.32931 | 113.90836 | 42 ft | 25 kts | 100° |
| 2026-05-05 16:12 | 22.32916 | 113.90895 | 43 ft | 1 kts | 111° |
| 2026-05-05 16:13 | 22.32850 | 113.90894 | 43 ft | 18 kts | 226° |
| 2026-05-05 16:13 | 22.32800 | 113.90765 | 42 ft | 18 kts | 250° |
| 2026-05-05 16:13 | 22.32757 | 113.90635 | 42 ft | 18 kts | 250° |
| 2026-05-05 16:14 | 22.32672 | 113.90387 | 42 ft | 14 kts | 231° |
| 2026-05-05 16:14 | 22.32538 | 113.90402 | 42 ft | 12 kts | 161° |
| 2026-05-05 16:15 | 22.32368 | 113.90465 | 42 ft | 13 kts | 161° |
| 2026-05-05 16:15 | 22.32196 | 113.90529 | 42 ft | 13 kts | 161° |
| 2026-05-05 16:16 | 22.31998 | 113.90604 | 42 ft | 22 kts | 161° |
| 2026-05-05 16:16 | 22.31705 | 113.90710 | 42 ft | 19 kts | 178° |
| 2026-05-05 16:17 | 22.31585 | 113.90471 | 41 ft | 19 kts | 250° |
| 2026-05-05 16:17 | 22.31541 | 113.90336 | 41 ft | 19 kts | 251° |
| 2026-05-05 16:18 | 22.31454 | 113.90066 | 41 ft | 19 kts | 251° |
| 2026-05-05 16:18 | 22.31411 | 113.89931 | 42 ft | 19 kts | 250° |
| 2026-05-05 16:18 | 22.31255 | 113.89794 | 42 ft | 15 kts | 160° |
| 2026-05-05 16:19 | 22.31157 | 113.89830 | 41 ft | 16 kts | 161° |
| 2026-05-05 16:19 | 22.31051 | 113.89869 | 42 ft | 16 kts | 161° |
| 2026-05-05 16:19 | 22.30881 | 113.89985 | 42 ft | 15 kts | 88° |
| 2026-05-05 16:20 | 22.30946 | 113.90201 | 42 ft | 15 kts | 70° |
| 2026-05-05 16:20 | 22.31020 | 113.90428 | 42 ft | 16 kts | 70° |
| 2026-05-05 16:21 | 22.31094 | 113.90660 | 42 ft | 16 kts | 71° |
| 2026-05-05 16:22 | 22.31221 | 113.91049 | 42 ft | 19 kts | 71° |
| 2026-05-05 16:22 | 22.31309 | 113.91324 | 42 ft | 19 kts | 70° |
| 2026-05-05 16:23 | 22.31398 | 113.91599 | 42 ft | 19 kts | 71° |
| 2026-05-05 16:23 | 22.31443 | 113.91736 | 42 ft | 19 kts | 71° |
| 2026-05-05 16:23 | 22.31531 | 113.92011 | 42 ft | 19 kts | 70° |
| 2026-05-05 16:24 | 22.31576 | 113.92149 | 41 ft | 19 kts | 71° |
| 2026-05-05 16:24 | 22.31620 | 113.92286 | 41 ft | 19 kts | 71° |
| 2026-05-05 16:24 | 22.31597 | 113.92504 | 42 ft | 10 kts | 152° |
| 2026-05-05 16:25 | 22.31529 | 113.92488 | 42 ft | 7 kts | 205° |
| 2026-05-05 16:25 | 22.31505 | 113.92476 | 42 ft | 0 kts | 205° |